createdAt,value
2022-11-12T00:01:23.147Z,5.40
2022-11-12T00:03:44.002Z,5.40
2022-11-12T00:06:05.340Z,5.30
2022-11-12T00:08:26.477Z,5.30
2022-11-12T00:10:47.726Z,5.30
2022-11-12T00:13:08.875Z,5.30
2022-11-12T00:15:29.732Z,5.20
2022-11-12T00:17:50.635Z,5.20
2022-11-12T00:20:12.178Z,5.30
2022-11-12T00:22:33.013Z,5.30
2022-11-12T00:24:53.650Z,5.30
2022-11-12T00:27:14.661Z,5.30
2022-11-12T00:29:35.664Z,5.30
2022-11-12T00:31:56.142Z,5.30
2022-11-12T00:34:34.476Z,5.30
2022-11-12T00:36:55.273Z,5.30
2022-11-12T00:39:16.375Z,5.30
2022-11-12T00:41:37.013Z,5.30
2022-11-12T00:43:57.865Z,5.30
2022-11-12T00:46:18.769Z,5.20
2022-11-12T00:48:39.682Z,5.20
2022-11-12T00:51:02.355Z,5.20
2022-11-12T00:53:23.321Z,5.20
2022-11-12T00:55:44.343Z,5.20
2022-11-12T00:58:05.310Z,5.20
2022-11-12T01:00:26.607Z,5.20
2022-11-12T01:02:50.968Z,5.20
2022-11-12T01:05:12.154Z,5.20
2022-11-12T01:07:33.174Z,5.20
2022-11-12T01:09:59.819Z,5.20
2022-11-12T01:12:20.879Z,5.20
2022-11-12T01:14:42.028Z,5.10
2022-11-12T01:17:02.878Z,5.20
2022-11-12T01:19:23.633Z,5.20
2022-11-12T01:21:44.818Z,5.10
2022-11-12T01:24:06.218Z,5.20
2022-11-12T01:26:30.737Z,5.20
2022-11-12T01:28:51.911Z,5.10
2022-11-12T01:31:25.307Z,5.10
2022-11-12T01:33:47.927Z,5.10
2022-11-12T01:36:09.204Z,5.10
2022-11-12T01:38:33.329Z,5.10
2022-11-12T01:40:55.356Z,5.10
2022-11-12T01:43:15.923Z,5.20
2022-11-12T01:45:37.741Z,5.20
2022-11-12T01:47:58.909Z,5.30
2022-11-12T01:50:33.527Z,5.30
2022-11-12T01:52:59.604Z,5.30
2022-11-12T01:55:47.831Z,5.40
2022-11-12T01:58:10.544Z,5.40
2022-11-12T02:00:31.609Z,5.40
2022-11-12T02:02:57.875Z,5.40
2022-11-12T02:05:20.555Z,5.40
2022-11-12T02:07:43.955Z,5.40
2022-11-12T02:10:07.919Z,5.40
2022-11-12T02:12:48.618Z,5.40
2022-11-12T02:15:09.515Z,5.40
2022-11-12T02:17:30.416Z,5.40
2022-11-12T02:19:52.641Z,5.40
2022-11-12T02:22:13.481Z,5.40
2022-11-12T02:24:35.362Z,5.40
2022-11-12T02:26:56.267Z,5.40
2022-11-12T02:29:17.332Z,5.40
2022-11-12T02:31:38.180Z,5.40
2022-11-12T02:33:59.112Z,5.40
2022-11-12T02:36:20.347Z,5.30
2022-11-12T02:38:41.008Z,5.40
2022-11-12T02:41:01.889Z,5.30
2022-11-12T02:43:22.617Z,5.30
2022-11-12T02:45:43.168Z,5.30
2022-11-12T02:48:04.115Z,5.20
2022-11-12T02:50:24.987Z,5.10
2022-11-12T02:52:46.169Z,5.10
2022-11-12T02:55:08.719Z,5.00
2022-11-12T02:57:30.389Z,4.90
2022-11-12T02:59:51.156Z,5.00
2022-11-12T03:02:11.948Z,4.90
2022-11-12T03:04:32.715Z,4.90
2022-11-12T03:06:53.696Z,4.90
2022-11-12T03:09:14.664Z,4.90
2022-11-12T03:11:35.280Z,4.80
2022-11-12T03:13:56.100Z,4.80
2022-11-12T03:16:17.154Z,4.80
2022-11-12T03:18:38.369Z,4.80
2022-11-12T03:20:58.916Z,4.80
2022-11-12T03:23:20.440Z,4.80
2022-11-12T03:25:41.297Z,4.80
2022-11-12T03:28:05.157Z,4.80
2022-11-12T03:30:30.202Z,4.80
2022-11-12T03:32:50.779Z,4.80
2022-11-12T03:35:11.515Z,4.80
2022-11-12T03:37:32.477Z,4.80
2022-11-12T03:39:53.366Z,4.70
2022-11-12T03:42:14.223Z,4.70
2022-11-12T03:44:35.614Z,4.70
2022-11-12T03:46:56.662Z,4.60
2022-11-12T03:49:17.586Z,4.60
2022-11-12T03:51:38.119Z,4.50
2022-11-12T03:53:58.593Z,4.50
2022-11-12T03:56:19.454Z,4.50
2022-11-12T03:58:40.430Z,4.40
2022-11-12T04:01:01.408Z,4.40
2022-11-12T04:03:22.447Z,4.40
2022-11-12T04:06:01.952Z,4.30
2022-11-12T04:08:36.228Z,4.30
2022-11-12T04:10:57.337Z,4.30
2022-11-12T04:13:27.733Z,4.40
2022-11-12T04:16:08.318Z,4.40
2022-11-12T04:18:47.523Z,4.40
2022-11-12T04:21:27.671Z,4.40
2022-11-12T04:23:48.666Z,4.30
2022-11-12T04:26:24.518Z,4.30
2022-11-12T04:29:05.245Z,4.30
2022-11-12T04:31:26.196Z,4.10
2022-11-12T04:33:46.800Z,4.20
2022-11-12T04:36:07.736Z,4.10
2022-11-12T04:38:28.766Z,4.10
2022-11-12T04:41:08.478Z,4.00
2022-11-12T04:43:48.236Z,4.00
2022-11-12T04:46:09.930Z,3.90
2022-11-12T04:48:35.912Z,3.90
2022-11-12T04:51:02.520Z,3.90
2022-11-12T04:53:23.190Z,3.90
2022-11-12T04:55:43.990Z,3.90
2022-11-12T04:58:04.745Z,3.90
2022-11-12T05:00:26.133Z,3.90
2022-11-12T05:02:50.011Z,3.90
2022-11-12T05:05:10.843Z,3.90
2022-11-12T05:07:33.090Z,3.80
2022-11-12T05:09:53.879Z,3.80
2022-11-12T05:12:14.787Z,3.80
2022-11-12T05:14:35.740Z,3.80
2022-11-12T05:16:56.492Z,3.80
2022-11-12T05:19:18.185Z,3.80
2022-11-12T05:21:58.424Z,3.80
2022-11-12T05:24:40.553Z,3.80
2022-11-12T05:27:00.687Z,3.80
2022-11-12T05:29:21.794Z,3.80
2022-11-12T05:31:42.776Z,3.90
2022-11-12T05:34:03.435Z,3.90
2022-11-12T05:36:24.455Z,3.90
2022-11-12T05:38:45.419Z,3.90
2022-11-12T05:41:06.320Z,3.90
2022-11-12T05:43:27.281Z,3.90
2022-11-12T05:45:48.083Z,3.90
2022-11-12T05:48:08.807Z,3.90
2022-11-12T05:50:34.998Z,3.80
2022-11-12T05:53:01.244Z,3.90
2022-11-12T05:55:21.915Z,3.80
2022-11-12T05:57:42.595Z,3.70
2022-11-12T06:00:04.096Z,3.70
2022-11-12T06:02:25.226Z,3.60
2022-11-12T06:04:48.169Z,3.60
2022-11-12T06:07:09.111Z,3.50
2022-11-12T06:09:30.000Z,3.50
2022-11-12T06:11:50.836Z,3.40
2022-11-12T06:14:11.937Z,3.40
2022-11-12T06:16:38.761Z,3.40
2022-11-12T06:18:59.735Z,3.40
2022-11-12T06:21:20.248Z,3.40
2022-11-12T06:23:40.929Z,3.30
2022-11-12T06:26:29.782Z,3.30
2022-11-12T06:28:53.024Z,3.30
2022-11-12T06:31:13.917Z,3.20
2022-11-12T06:33:34.958Z,3.20
2022-11-12T06:36:03.510Z,3.20
2022-11-12T06:38:25.093Z,3.20
2022-11-12T06:40:47.260Z,3.20
2022-11-12T06:43:08.131Z,3.20
2022-11-12T06:45:29.123Z,3.20
2022-11-12T06:47:49.731Z,3.20
2022-11-12T06:50:10.816Z,3.20
2022-11-12T06:52:32.734Z,3.10
2022-11-12T06:54:53.628Z,3.10
2022-11-12T06:57:14.448Z,3.10
2022-11-12T06:59:35.573Z,3.10
2022-11-12T07:01:56.163Z,3.20
2022-11-12T07:04:17.058Z,3.20
2022-11-12T07:06:38.323Z,3.20
2022-11-12T07:08:59.511Z,3.20
2022-11-12T07:11:20.462Z,3.20
2022-11-12T07:13:48.050Z,3.20
2022-11-12T07:16:10.846Z,3.20
2022-11-12T07:18:32.314Z,3.30
2022-11-12T07:20:58.524Z,3.20
2022-11-12T07:23:19.390Z,3.30
2022-11-12T07:25:40.393Z,3.20
2022-11-12T07:28:01.217Z,3.20
2022-11-12T07:30:22.262Z,3.30
2022-11-12T07:32:47.139Z,3.20
2022-11-12T07:35:10.988Z,3.20
2022-11-12T07:37:33.785Z,3.30
2022-11-12T07:39:54.544Z,3.30
2022-11-12T07:42:15.457Z,3.40
2022-11-12T07:44:38.097Z,3.40
2022-11-12T07:46:59.969Z,3.50
2022-11-12T07:49:20.969Z,3.50
2022-11-12T07:51:41.917Z,3.60
2022-11-12T07:54:02.687Z,3.70
2022-11-12T07:56:26.132Z,3.80
2022-11-12T07:58:50.508Z,3.90
2022-11-12T08:01:34.493Z,3.90
2022-11-12T08:04:46.628Z,4.00
2022-11-12T08:07:07.425Z,4.20
2022-11-12T08:09:28.119Z,4.30
2022-11-12T08:11:49.109Z,4.40
2022-11-12T08:14:09.786Z,4.50
2022-11-12T08:16:30.284Z,4.60
2022-11-12T08:18:51.189Z,4.70
2022-11-12T08:21:14.182Z,4.70
2022-11-12T08:23:35.303Z,4.80
2022-11-12T08:26:04.826Z,4.90
2022-11-12T08:28:26.419Z,5.00
2022-11-12T08:30:47.493Z,5.10
2022-11-12T08:33:08.464Z,5.20
2022-11-12T08:35:31.264Z,5.40
2022-11-12T08:37:52.139Z,5.50
2022-11-12T08:40:13.167Z,5.60
2022-11-12T08:42:34.141Z,5.70
2022-11-12T08:44:55.036Z,5.90
2022-11-12T08:47:16.065Z,5.90
2022-11-12T08:49:46.795Z,5.90
2022-11-12T08:52:09.003Z,6.00
2022-11-12T08:54:30.440Z,6.10
2022-11-12T08:57:07.268Z,6.20
2022-11-12T08:59:28.135Z,6.20
2022-11-12T09:01:50.196Z,6.30
2022-11-12T09:04:11.101Z,6.30
2022-11-12T09:06:32.223Z,6.30
2022-11-12T09:08:53.364Z,6.40
2022-11-12T09:11:14.201Z,6.40
2022-11-12T09:13:35.070Z,6.50
2022-11-12T09:16:01.573Z,6.50
2022-11-12T09:18:22.162Z,6.50
2022-11-12T09:20:43.261Z,6.60
2022-11-12T09:23:12.043Z,6.60
2022-11-12T09:25:33.817Z,6.60
2022-11-12T09:27:55.073Z,6.70
2022-11-12T09:30:16.268Z,6.70
2022-11-12T09:32:37.333Z,6.80
2022-11-12T09:35:02.365Z,6.80
2022-11-12T09:37:23.153Z,6.90
2022-11-12T09:39:43.965Z,6.90
2022-11-12T09:42:11.754Z,7.00
2022-11-12T09:44:36.679Z,7.10
2022-11-12T09:47:04.744Z,7.10
2022-11-12T09:49:32.681Z,7.20
2022-11-12T09:51:55.383Z,7.30
2022-11-12T09:54:34.839Z,7.50
2022-11-12T09:56:55.788Z,7.70
2022-11-12T09:59:17.403Z,7.80
2022-11-12T10:01:44.213Z,8.00
2022-11-12T10:04:14.116Z,8.20
2022-11-12T10:06:45.823Z,8.50
2022-11-12T10:09:24.143Z,8.70
2022-11-12T10:12:31.776Z,9.00
2022-11-12T10:15:35.247Z,9.20
2022-11-12T10:18:02.082Z,9.50
2022-11-12T10:20:43.364Z,9.80
2022-11-12T10:23:15.563Z,10.00
2022-11-12T10:25:37.552Z,10.20
2022-11-12T10:27:58.123Z,10.40
2022-11-12T10:30:22.009Z,10.60
2022-11-12T10:32:45.178Z,10.80
2022-11-12T10:35:09.632Z,11.00
2022-11-12T10:37:41.492Z,11.10
2022-11-12T10:40:28.085Z,11.20
2022-11-12T10:42:57.705Z,11.30
2022-11-12T10:45:23.389Z,11.40
2022-11-12T10:47:47.022Z,11.40
2022-11-12T10:50:35.151Z,11.40
2022-11-12T10:53:31.720Z,11.40
2022-11-12T10:56:01.699Z,11.30
2022-11-12T10:58:22.409Z,11.30
2022-11-12T11:00:56.648Z,11.20
2022-11-12T11:03:57.055Z,11.20
2022-11-12T11:06:23.684Z,11.20
2022-11-12T11:09:08.729Z,11.20
2022-11-12T11:11:31.170Z,11.10
2022-11-12T11:13:57.467Z,11.10
2022-11-12T11:16:21.293Z,11.10
2022-11-12T11:18:48.011Z,11.20
2022-11-12T11:21:46.853Z,11.20
2022-11-12T11:24:14.014Z,11.20
2022-11-12T11:27:30.588Z,11.20
2022-11-12T11:30:15.527Z,11.30
2022-11-12T11:32:58.407Z,11.30
2022-11-12T11:35:36.877Z,11.40
2022-11-12T11:38:36.398Z,11.40
2022-11-12T11:41:15.462Z,11.50
2022-11-12T11:43:45.141Z,11.60
2022-11-12T11:46:26.418Z,11.60
2022-11-12T11:49:49.430Z,11.70
2022-11-12T11:52:47.862Z,11.70
2022-11-12T11:59:32.453Z,11.70
2022-11-12T12:02:23.944Z,11.70
2022-11-12T12:04:47.297Z,11.60
2022-11-12T12:08:11.657Z,11.60
2022-11-12T12:13:56.286Z,11.60
2022-11-12T12:16:25.924Z,11.50
2022-11-12T12:19:12.129Z,11.50
2022-11-12T12:21:36.357Z,11.50
2022-11-12T12:24:15.176Z,11.60
2022-11-12T12:26:54.008Z,11.60
2022-11-12T12:29:26.433Z,11.60
2022-11-12T12:32:11.755Z,11.70
2022-11-12T12:34:34.796Z,11.70
2022-11-12T12:37:04.276Z,11.70
2022-11-12T12:39:49.185Z,11.70
2022-11-12T12:42:18.437Z,11.80
2022-11-12T12:45:05.894Z,11.80
2022-11-12T12:47:30.821Z,11.80
2022-11-12T12:49:53.088Z,11.80
2022-11-12T12:52:15.351Z,11.80
2022-11-12T12:54:36.124Z,11.90
2022-11-12T12:56:57.077Z,11.90
2022-11-12T12:59:23.877Z,11.90
2022-11-12T13:01:44.697Z,11.90
2022-11-12T13:04:08.875Z,11.90
2022-11-12T13:06:53.860Z,11.90
2022-11-12T13:09:14.984Z,11.90
2022-11-12T13:12:00.239Z,11.80
2022-11-12T13:15:11.716Z,11.90
2022-11-12T13:17:50.072Z,11.80
2022-11-12T13:20:10.597Z,11.90
2022-11-12T13:22:49.820Z,11.90
2022-11-12T13:25:13.571Z,11.90
2022-11-12T13:27:40.890Z,11.90
2022-11-12T13:30:01.419Z,11.90
2022-11-12T13:32:32.339Z,11.90
2022-11-12T13:35:13.324Z,12.00
2022-11-12T13:37:34.273Z,11.90
2022-11-12T13:40:03.974Z,11.90
2022-11-12T13:42:43.349Z,11.90
2022-11-12T13:45:05.964Z,11.80
2022-11-12T13:47:29.480Z,11.80
2022-11-12T13:49:50.847Z,11.80
2022-11-12T13:52:15.470Z,11.80
2022-11-12T13:55:31.489Z,11.80
2022-11-12T13:57:56.860Z,11.80
2022-11-12T14:00:22.600Z,11.80
2022-11-12T14:02:46.245Z,11.80
2022-11-12T14:05:23.522Z,11.70
2022-11-12T14:08:00.530Z,11.60
2022-11-12T14:10:43.417Z,11.60
2022-11-12T14:13:15.267Z,11.60
2022-11-12T14:15:56.620Z,11.60
2022-11-12T14:19:03.262Z,11.50
2022-11-12T14:21:24.498Z,11.50
2022-11-12T14:23:47.863Z,11.40
2022-11-12T14:26:11.467Z,11.40
2022-11-12T14:28:37.124Z,11.30
2022-11-12T14:31:00.155Z,11.30
2022-11-12T14:33:23.265Z,11.20
2022-11-12T14:35:44.077Z,11.10
2022-11-12T14:38:05.346Z,11.10
2022-11-12T14:40:29.011Z,11.00
2022-11-12T14:42:50.475Z,11.00
2022-11-12T14:46:03.643Z,10.90
2022-11-12T14:48:24.626Z,10.90
2022-11-12T14:50:51.859Z,10.80
2022-11-12T14:53:25.212Z,10.70
2022-11-12T14:55:51.838Z,10.70
2022-11-12T14:58:17.875Z,10.50
2022-11-12T15:00:42.926Z,10.50
2022-11-12T15:03:04.920Z,10.40
2022-11-12T15:05:27.520Z,10.20
2022-11-12T15:08:01.399Z,10.10
2022-11-12T15:10:36.579Z,10.10
2022-11-12T15:13:08.479Z,9.90
2022-11-12T15:15:29.727Z,9.90
2022-11-12T15:18:01.097Z,9.90
2022-11-12T15:20:21.842Z,9.80
2022-11-12T15:22:53.257Z,9.70
2022-11-12T15:25:41.196Z,9.70
2022-11-12T15:28:25.152Z,9.50
2022-11-12T15:31:01.054Z,9.40
2022-11-12T15:33:22.938Z,9.30
2022-11-12T15:35:56.452Z,9.30
2022-11-12T15:38:31.723Z,9.20
2022-11-12T15:40:59.903Z,9.10
2022-11-12T15:43:24.476Z,9.00
2022-11-12T15:45:52.141Z,8.90
2022-11-12T15:48:12.906Z,8.80
2022-11-12T15:50:33.782Z,8.70
2022-11-12T15:52:54.653Z,8.70
2022-11-12T15:55:16.110Z,8.60
2022-11-12T15:57:44.146Z,8.50
2022-11-12T16:00:10.489Z,8.40
2022-11-12T16:02:31.977Z,8.30
2022-11-12T16:04:52.980Z,8.30
2022-11-12T16:07:13.793Z,8.30
2022-11-12T16:09:34.811Z,8.20
2022-11-12T16:11:57.480Z,8.20
2022-11-12T16:14:21.999Z,8.20
2022-11-12T16:16:45.974Z,8.10
2022-11-12T16:19:14.766Z,8.10
2022-11-12T16:21:35.418Z,8.00
2022-11-12T16:23:57.459Z,8.00
2022-11-12T16:26:25.098Z,7.90
2022-11-12T16:28:46.043Z,7.90
2022-11-12T16:31:07.064Z,7.80
2022-11-12T16:33:29.329Z,7.80
2022-11-12T16:35:50.543Z,7.70
2022-11-12T16:38:15.973Z,7.60
2022-11-12T16:40:36.879Z,7.60
2022-11-12T16:42:58.202Z,7.50
2022-11-12T16:45:20.939Z,7.40
2022-11-12T16:47:56.017Z,7.40
2022-11-12T16:50:19.010Z,7.30
2022-11-12T16:52:39.932Z,7.30
2022-11-12T16:55:04.586Z,7.30
2022-11-12T16:57:25.667Z,7.30
2022-11-12T16:59:46.416Z,7.20
2022-11-12T17:02:31.128Z,7.20
2022-11-12T17:04:51.883Z,7.20
2022-11-12T17:07:12.819Z,7.10
2022-11-12T17:09:33.949Z,7.10
2022-11-12T17:11:55.018Z,7.00
2022-11-12T17:14:21.185Z,7.00
2022-11-12T17:16:45.325Z,7.00
2022-11-12T17:19:14.398Z,6.90
2022-11-12T17:21:36.057Z,6.80
2022-11-12T17:23:58.018Z,6.80
2022-11-12T17:26:20.417Z,6.70
2022-11-12T17:28:41.355Z,6.70
2022-11-12T17:31:13.636Z,6.60
2022-11-12T17:33:48.667Z,6.60
2022-11-12T17:36:12.498Z,6.50
2022-11-12T17:39:27.270Z,6.50
2022-11-12T17:41:47.964Z,6.50
2022-11-12T17:44:08.452Z,6.40
2022-11-12T17:46:29.392Z,6.30
2022-11-12T17:48:50.414Z,6.30
2022-11-12T17:51:14.612Z,6.30
2022-11-12T17:53:42.954Z,6.20
2022-11-12T17:56:04.488Z,6.10
2022-11-12T17:58:25.921Z,6.10
2022-11-12T18:00:46.618Z,6.00
2022-11-12T18:03:07.395Z,6.00
2022-11-12T18:05:28.402Z,5.90
2022-11-12T18:07:48.997Z,5.90
2022-11-12T18:10:09.861Z,5.90
2022-11-12T18:12:30.442Z,5.80
2022-11-12T18:14:51.236Z,5.80
2022-11-12T18:17:14.527Z,5.80
2022-11-12T18:19:36.534Z,5.70
2022-11-12T18:21:57.469Z,5.70
2022-11-12T18:24:18.512Z,5.60
2022-11-12T18:26:39.641Z,5.60
2022-11-12T18:29:00.878Z,5.60
2022-11-12T18:31:23.158Z,5.60
2022-11-12T18:33:44.271Z,5.60
2022-11-12T18:36:11.649Z,5.50
2022-11-12T18:38:36.868Z,5.50
2022-11-12T18:41:17.486Z,5.50
2022-11-12T18:43:39.142Z,5.40
2022-11-12T18:46:00.479Z,5.40
2022-11-12T18:48:21.175Z,5.40
2022-11-12T18:50:42.999Z,5.40
2022-11-12T18:53:03.891Z,5.30
2022-11-12T18:55:24.903Z,5.30
2022-11-12T18:58:49.386Z,5.30
2022-11-12T19:01:20.634Z,5.20
2022-11-12T19:03:42.576Z,5.20
2022-11-12T19:07:09.629Z,5.20
2022-11-12T19:09:30.783Z,5.20
2022-11-12T19:11:51.775Z,5.20
2022-11-12T19:14:12.659Z,5.10
2022-11-12T19:16:39.675Z,5.10
2022-11-12T19:19:00.428Z,5.10
2022-11-12T19:21:23.824Z,5.00
2022-11-12T19:23:46.333Z,4.90
2022-11-12T19:26:13.742Z,4.90
2022-11-12T19:28:35.377Z,4.80
2022-11-12T19:30:56.612Z,4.90
2022-11-12T19:33:17.152Z,4.90
2022-11-12T19:35:41.198Z,4.80
2022-11-12T19:38:02.140Z,4.90
2022-11-12T19:40:23.024Z,4.80
2022-11-12T19:42:46.981Z,4.90
2022-11-12T19:45:08.269Z,4.80
2022-11-12T19:47:29.431Z,4.80
2022-11-12T19:49:55.521Z,4.80
2022-11-12T19:52:16.475Z,4.80
2022-11-12T19:54:37.496Z,4.70
2022-11-12T19:56:59.563Z,4.70
2022-11-12T19:59:20.446Z,4.70
2022-11-12T20:01:48.288Z,4.70
2022-11-12T20:04:12.603Z,4.70
2022-11-12T20:06:43.524Z,4.60
2022-11-12T20:09:05.633Z,4.70
2022-11-12T20:11:35.662Z,4.70
2022-11-12T20:13:57.868Z,4.80
2022-11-12T20:16:24.962Z,4.90
2022-11-12T20:18:50.793Z,5.00
2022-11-12T20:21:12.209Z,5.10
2022-11-12T20:23:34.289Z,5.20
2022-11-12T20:26:04.010Z,5.20
2022-11-12T20:28:24.897Z,5.20
2022-11-12T20:30:46.036Z,5.30
2022-11-12T20:33:06.994Z,5.40
2022-11-12T20:36:19.890Z,5.50
2022-11-12T20:38:43.355Z,5.60
2022-11-12T20:41:06.356Z,5.60
2022-11-12T20:43:29.237Z,5.70
2022-11-12T20:45:52.187Z,5.70
2022-11-12T20:48:12.679Z,5.80
2022-11-12T20:50:33.481Z,5.80
2022-11-12T20:52:54.554Z,5.80
2022-11-12T20:55:15.116Z,5.80
2022-11-12T20:57:35.823Z,5.80
2022-11-12T20:59:56.715Z,5.80
2022-11-12T21:02:18.231Z,5.80
2022-11-12T21:04:39.203Z,5.70
2022-11-12T21:07:05.020Z,5.80
2022-11-12T21:09:54.521Z,5.70
2022-11-12T21:12:15.751Z,5.70
2022-11-12T21:14:39.891Z,5.70
2022-11-12T21:17:10.314Z,5.70
2022-11-12T21:19:32.475Z,5.60
2022-11-12T21:21:53.512Z,5.60
2022-11-12T21:24:14.629Z,5.60
2022-11-12T21:26:44.426Z,5.60
2022-11-12T21:29:05.350Z,5.60
2022-11-12T21:31:28.355Z,5.60
2022-11-12T21:33:53.922Z,5.60
2022-11-12T21:36:16.525Z,5.60
2022-11-12T21:38:37.843Z,5.60
2022-11-12T21:41:07.252Z,5.50
2022-11-12T21:43:27.921Z,5.50
2022-11-12T21:45:48.895Z,5.40
2022-11-12T21:48:09.644Z,5.30
2022-11-12T21:50:30.586Z,5.30
2022-11-12T21:52:51.297Z,5.30
2022-11-12T21:55:12.262Z,5.30
2022-11-12T21:57:33.194Z,5.20
2022-11-12T22:00:00.205Z,5.20
2022-11-12T22:02:29.496Z,5.10
2022-11-12T22:04:50.258Z,5.10
2022-11-12T22:07:11.297Z,5.10
2022-11-12T22:09:33.453Z,5.10
2022-11-12T22:11:54.437Z,5.10
2022-11-12T22:14:17.511Z,5.20
2022-11-12T22:16:38.515Z,5.20
2022-11-12T22:19:00.298Z,5.30
2022-11-12T22:21:23.558Z,5.30
2022-11-12T22:23:44.852Z,5.30
2022-11-12T22:26:08.030Z,5.30
2022-11-12T22:28:29.496Z,5.30
2022-11-12T22:30:50.898Z,5.30
2022-11-12T22:33:11.892Z,5.30
2022-11-12T22:35:33.616Z,5.30
2022-11-12T22:37:54.794Z,5.30
2022-11-12T22:40:15.760Z,5.40
2022-11-12T22:42:44.594Z,5.40
2022-11-12T22:45:06.124Z,5.30
2022-11-12T22:47:27.228Z,5.30
2022-11-12T22:49:50.925Z,5.30
2022-11-12T22:52:11.902Z,5.30
2022-11-12T22:54:32.969Z,5.20
2022-11-12T22:56:53.869Z,5.10
2022-11-12T22:59:14.767Z,5.00
2022-11-12T23:01:36.276Z,4.90
2022-11-12T23:03:59.528Z,4.80
2022-11-12T23:06:20.343Z,4.70
2022-11-12T23:08:41.978Z,4.70
2022-11-12T23:11:05.497Z,4.60
2022-11-12T23:13:31.472Z,4.60
2022-11-12T23:15:52.164Z,4.50
2022-11-12T23:18:13.242Z,4.50
2022-11-12T23:20:33.687Z,4.40
2022-11-12T23:22:54.605Z,4.30
2022-11-12T23:25:15.319Z,4.30
2022-11-12T23:27:36.361Z,4.20
2022-11-12T23:29:57.293Z,4.20
2022-11-12T23:32:18.242Z,4.10
2022-11-12T23:34:39.328Z,4.10
2022-11-12T23:37:00.122Z,4.10
2022-11-12T23:39:21.044Z,4.10
2022-11-12T23:41:41.989Z,4.10
2022-11-12T23:44:02.995Z,4.10
2022-11-12T23:46:24.450Z,4.10
2022-11-12T23:48:45.912Z,4.10
2022-11-12T23:51:20.661Z,4.00
2022-11-12T23:53:42.134Z,4.00
2022-11-12T23:56:04.573Z,4.10
2022-11-12T23:58:25.977Z,4.00
